Time;durP1;ratioP1;P1;durP2;ratioP2;P2;SDS_P1;SDS_P2;PMS_P1;PMS_P2;Temp;Humidity;BMP_temperature;BMP_pressure;BME280_temperature;BME280_humidity;BME280_pressure;Samples;Min_cycle;Max_cycle;Signal;HPM_P1;HPM_P2
2022/04/19 00:00:29;;;;;;;5.80;2.80;;;;;;;;;;4939576;29;20031;-90
2022/04/19 00:02:54;;;;;;;5.15;2.60;;;;;;;;;;4939221;29;20026;-92
2022/04/19 00:05:19;;;;;;;6.35;2.63;;;;;;;;;;4939656;29;20019;-90
2022/04/19 00:07:45;;;;;;;6.72;2.95;;;;;;;;;;4956427;28;20024;-89
2022/04/19 00:10:11;;;;;;;4.40;2.88;;;;;;;;;;4939834;28;20337;-91
2022/04/19 00:12:36;;;;;;;6.65;2.95;;;;;;;;;;4939328;29;20620;-91
2022/04/19 00:15:02;;;;;;;4.47;2.47;;;;;;;;;;4939578;29;20049;-90
2022/04/19 00:17:27;;;;;;;5.22;2.42;;;;;;;;;;4939599;29;20024;-92
2022/04/19 00:19:52;;;;;;;4.18;2.20;;;;;;;;;;4939637;29;20570;-92
2022/04/19 00:22:17;;;;;;;5.45;2.20;;;;;;;;;;4939980;29;20368;-91
2022/04/19 00:24:43;;;;;;;4.85;2.25;;;;;;;;;;4940207;29;20046;-91
2022/04/19 00:27:08;;;;;;;4.15;2.10;;;;;;;;;;4942300;29;20110;-89
2022/04/19 00:29:33;;;;;;;4.07;2.47;;;;;;;;;;4941448;29;20062;-91
2022/04/19 00:31:59;;;;;;;5.30;2.08;;;;;;;;;;4940585;29;20095;-91
2022/04/19 00:34:24;;;;;;;7.43;2.05;;;;;;;;;;4941523;29;20023;-90
2022/04/19 00:36:49;;;;;;;5.13;2.45;;;;;;;;;;4942008;29;20024;-90
2022/04/19 00:39:14;;;;;;;3.50;1.88;;;;;;;;;;4947427;29;20059;-89
2022/04/19 00:41:40;;;;;;;3.00;1.67;;;;;;;;;;4947643;28;20065;-87
2022/04/19 00:44:05;;;;;;;3.38;1.80;;;;;;;;;;4956618;29;20451;-88
2022/04/19 00:46:40;;;;;;;4.18;2.53;;;;;;;;;;4955149;29;20050;-86
2022/04/19 00:52:19;;;;;;;4.13;2.20;;;;;;;;;;5043048;23;20082;-90
2022/04/19 00:54:44;;;;;;;4.95;2.30;;;;;;;;;;4961334;28;20035;-89
2022/04/19 00:57:13;;;;;;;3.80;2.00;;;;;;;;;;4995449;23;20034;-89
2022/04/19 00:59:38;;;;;;;;;;;;;;;;;;4970223;23;20047;-90
2022/04/19 01:02:04;;;;;;;5.20;2.05;;;;;;;;;;4955270;29;19934;-91
2022/04/19 01:04:30;;;;;;;3.97;2.38;;;;;;;;;;4955351;29;20027;-90
2022/04/19 01:06:55;;;;;;;4.43;2.13;;;;;;;;;;4955274;29;20031;-91
2022/04/19 01:09:22;;;;;;;7.05;2.30;;;;;;;;;;4957265;28;20015;-88
2022/04/19 01:14:34;;;;;;;5.03;2.20;;;;;;;;;;5209414;23;20047;-85
2022/04/19 01:17:08;;;;;;;4.10;1.98;;;;;;;;;;4959656;29;20090;-87
2022/04/19 01:19:38;;;;;;;4.20;2.13;;;;;;;;;;4959865;29;20031;-84
2022/04/19 01:22:04;;;;;;;3.88;2.08;;;;;;;;;;4960326;29;20020;-85
2022/04/19 01:24:29;;;;;;;3.50;1.90;;;;;;;;;;4960345;29;20046;-85
2022/04/19 01:26:55;;;;;;;4.10;2.35;;;;;;;;;;4960223;29;20092;-86
2022/04/19 01:29:20;;;;;;;7.13;2.28;;;;;;;;;;4960713;29;20026;-84
2022/04/19 01:31:47;;;;;;;3.72;1.80;;;;;;;;;;4961754;29;20027;-84
2022/04/19 01:34:13;;;;;;;4.38;2.00;;;;;;;;;;4961665;29;20023;-85
2022/04/19 01:36:40;;;;;;;4.22;1.85;;;;;;;;;;4962753;29;20026;-85
2022/04/19 01:39:06;;;;;;;5.50;2.00;;;;;;;;;;4962435;28;20019;-84
2022/04/19 01:41:32;;;;;;;3.75;1.90;;;;;;;;;;4962937;28;20042;-88
2022/04/19 01:44:15;;;;;;;5.10;1.80;;;;;;;;;;4962866;28;20024;-89
2022/04/19 01:46:41;;;;;;;4.20;2.17;;;;;;;;;;5090571;23;20051;-91
2022/04/19 01:49:07;;;;;;;4.80;1.80;;;;;;;;;;4959644;28;20030;-88
2022/04/19 01:51:32;;;;;;;5.05;2.15;;;;;;;;;;4963102;28;20043;-86
2022/04/19 01:53:57;;;;;;;3.85;1.98;;;;;;;;;;4963074;29;20035;-87
2022/04/19 01:56:25;;;;;;;4.75;1.83;;;;;;;;;;4963436;28;20075;-86
2022/04/19 01:58:51;;;;;;;5.38;1.73;;;;;;;;;;4962739;28;20337;-88
2022/04/19 02:01:16;;;;;;;4.45;2.22;;;;;;;;;;5026171;23;20040;-89
2022/04/19 02:03:42;;;;;;;4.10;2.17;;;;;;;;;;4962530;28;20011;-89
2022/04/19 02:08:42;;;;;;;6.30;2.00;;;;;;;;;;5512033;23;20031;-89
2022/04/19 02:11:07;;;;;;;4.28;2.00;;;;;;;;;;5498441;23;20292;-87
2022/04/19 02:13:32;;;;;;;5.40;2.20;;;;;;;;;;5477923;23;20057;-89
2022/04/19 02:21:07;;;;;;;4.20;1.98;;;;;;;;;;5600195;23;20031;-89
2022/04/19 02:28:45;;;;;;;5.10;1.83;;;;;;;;;;5101463;23;20095;-84
2022/04/19 02:31:11;;;;;;;5.82;2.20;;;;;;;;;;5512357;23;20021;-81
2022/04/19 02:33:36;;;;;;;4.95;2.30;;;;;;;;;;5245540;23;20055;-84
2022/04/19 02:36:03;;;;;;;5.65;2.50;;;;;;;;;;4959971;28;20083;-83
2022/04/19 02:38:38;;;;;;;7.32;2.30;;;;;;;;;;4959690;29;20024;-83
2022/04/19 02:41:16;;;;;;;4.57;2.17;;;;;;;;;;4961164;28;20024;-83
2022/04/19 02:43:45;;;;;;;5.03;2.10;;;;;;;;;;5034404;23;20026;-83
2022/04/19 02:46:16;;;;;;;5.53;2.15;;;;;;;;;;4982270;28;20015;-83
2022/04/19 02:48:42;;;;;;;4.78;2.25;;;;;;;;;;4965303;28;20018;-82
2022/04/19 02:51:10;;;;;;;7.32;2.10;;;;;;;;;;4963272;29;20015;-83
2022/04/19 02:53:36;;;;;;;;;;;;;;;;;;4962480;29;20031;-83
2022/04/19 02:56:05;;;;;;;6.88;2.35;;;;;;;;;;4961661;29;19891;-82
2022/04/19 02:58:34;;;;;;;3.95;2.17;;;;;;;;;;4962424;29;20053;-83
2022/04/19 03:01:01;;;;;;;6.18;2.85;;;;;;;;;;4962275;29;20055;-83
2022/04/19 03:03:45;;;;;;;8.40;2.33;;;;;;;;;;4962822;29;20048;-84
2022/04/19 03:06:11;;;;;;;4.85;2.53;;;;;;;;;;4962526;29;20028;-83
2022/04/19 03:08:44;;;;;;;3.95;1.80;;;;;;;;;;4962373;29;20034;-83
2022/04/19 03:11:13;;;;;;;4.20;2.10;;;;;;;;;;4963158;29;20047;-84
2022/04/19 03:13:41;;;;;;;4.47;2.42;;;;;;;;;;4963112;28;20027;-83
2022/04/19 03:16:10;;;;;;;4.32;2.17;;;;;;;;;;4962852;29;20023;-82
2022/04/19 03:18:38;;;;;;;4.13;2.17;;;;;;;;;;4963496;28;20004;-83
2022/04/19 03:21:10;;;;;;;6.38;2.13;;;;;;;;;;4963429;28;20031;-84
2022/04/19 03:29:13;;;;;;;4.28;2.10;;;;;;;;;;4980858;28;20039;-81
2022/04/19 03:31:47;;;;;;;4.85;2.05;;;;;;;;;;4964605;28;20008;-83
2022/04/19 03:34:16;;;;;;;4.20;1.83;;;;;;;;;;4981145;28;20007;-83
2022/04/19 03:36:41;;;;;;;5.07;2.50;;;;;;;;;;4980457;28;20042;-84
2022/04/19 03:39:13;;;;;;;5.82;2.25;;;;;;;;;;4978655;28;20042;-84
2022/04/19 03:41:40;;;;;;;5.13;1.98;;;;;;;;;;4977377;28;20018;-83
2022/04/19 03:44:08;;;;;;;6.95;2.30;;;;;;;;;;4978320;28;20067;-84
2022/04/19 03:47:09;;;;;;;5.13;2.20;;;;;;;;;;4977354;29;20003;-83
2022/04/19 03:49:39;;;;;;;4.65;2.40;;;;;;;;;;4977356;29;20083;-83
2022/04/19 03:52:10;;;;;;;6.38;2.45;;;;;;;;;;4961091;28;20007;-82
2022/04/19 03:54:39;;;;;;;5.00;2.42;;;;;;;;;;4978540;29;20052;-82
2022/04/19 03:57:14;;;;;;;;;;;;;;;;;;;;;
2022/04/19 03:59:41;;;;;;;5.78;2.15;;;;;;;;;;4978687;28;19949;-83
2022/04/19 04:02:10;;;;;;;3.97;2.30;;;;;;;;;;4961301;28;20043;-83
2022/04/19 04:04:46;;;;;;;6.93;2.78;;;;;;;;;;4960586;29;20091;-83
2022/04/19 04:07:22;;;;;;;7.18;3.30;;;;;;;;;;4960184;29;20008;-83
2022/04/19 04:09:49;;;;;;;7.65;2.85;;;;;;;;;;4977195;29;20557;-83
2022/04/19 04:12:18;;;;;;;3.85;2.17;;;;;;;;;;4960283;29;20088;-83
2022/04/19 04:14:45;;;;;;;4.85;2.33;;;;;;;;;;4960651;29;20027;-84
2022/04/19 04:17:11;;;;;;;6.88;2.50;;;;;;;;;;4961396;28;20028;-82
2022/04/19 04:19:37;;;;;;;6.90;3.30;;;;;;;;;;4959873;29;20037;-82
2022/04/19 04:22:04;;;;;;;11.68;2.88;;;;;;;;;;4976346;28;20020;-82
2022/04/19 04:24:29;;;;;;;5.38;2.22;;;;;;;;;;4960704;28;20023;-83
2022/04/19 04:26:58;;;;;;;5.53;2.38;;;;;;;;;;4960069;29;20119;-83
2022/04/19 04:29:26;;;;;;;;;;;;;;;;;;4960669;29;20087;-83
2022/04/19 04:31:53;;;;;;;6.88;2.20;;;;;;;;;;4961449;28;19941;-82
2022/04/19 04:34:30;;;;;;;7.18;2.58;;;;;;;;;;4962819;28;20031;-83
2022/04/19 04:37:02;;;;;;;7.72;2.38;;;;;;;;;;4963204;28;20027;-82
2022/04/19 04:39:31;;;;;;;4.88;2.38;;;;;;;;;;4962991;28;20082;-83
2022/04/19 04:44:50;;;;;;;3.92;2.20;;;;;;;;;;4963089;28;20023;-84
2022/04/19 04:50:14;;;;;;;6.25;2.28;;;;;;;;;;4978290;29;20019;-82
2022/04/19 04:52:40;;;;;;;4.50;1.92;;;;;;;;;;4961180;29;20027;-82
2022/04/19 04:55:07;;;;;;;4.57;2.50;;;;;;;;;;4961354;29;20023;-83
2022/04/19 04:57:39;;;;;;;6.03;2.35;;;;;;;;;;4961902;29;20090;-83
2022/04/19 05:00:21;;;;;;;5.00;2.85;;;;;;;;;;4960225;28;20058;-83
2022/04/19 05:02:57;;;;;;;6.55;2.10;;;;;;;;;;4959921;29;20023;-84
2022/04/19 05:05:26;;;;;;;4.63;2.00;;;;;;;;;;4977672;29;20023;-83
2022/04/19 05:07:55;;;;;;;7.78;2.28;;;;;;;;;;4978186;29;20007;-83
2022/04/19 05:10:31;;;;;;;5.30;2.90;;;;;;;;;;4975396;29;20066;-83
2022/04/19 05:13:05;;;;;;;6.85;2.50;;;;;;;;;;4959164;29;20025;-83
2022/04/19 05:16:01;;;;;;;5.03;2.45;;;;;;;;;;4959989;29;20099;-82
2022/04/19 05:18:34;;;;;;;5.90;2.58;;;;;;;;;;4945988;29;20047;-83
2022/04/19 05:21:07;;;;;;;8.75;2.33;;;;;;;;;;4960271;29;20043;-83
2022/04/19 05:23:45;;;;;;;4.97;2.22;;;;;;;;;;4960014;28;20028;-84
2022/04/19 05:26:16;;;;;;;3.45;1.77;;;;;;;;;;4982345;29;20030;-84
2022/04/19 05:28:50;;;;;;;5.93;2.30;;;;;;;;;;4964201;29;20007;-83
2022/04/19 05:31:20;;;;;;;4.40;2.10;;;;;;;;;;4964317;28;20003;-83
2022/04/19 05:33:49;;;;;;;53.10;10.20;;;;;;;;;;4962807;29;20034;-83
2022/04/19 05:36:15;;;;;;;15.73;3.78;;;;;;;;;;4963986;29;20026;-84
2022/04/19 05:38:52;;;;;;;4.97;2.05;;;;;;;;;;5084642;23;20070;-82
2022/04/19 05:41:43;;;;;;;5.60;2.25;;;;;;;;;;4965251;28;20031;-83
2022/04/19 05:44:21;;;;;;;6.20;2.58;;;;;;;;;;4956953;28;20040;-84
2022/04/19 05:46:47;;;;;;;5.38;2.17;;;;;;;;;;4960746;29;20014;-84
2022/04/19 05:49:21;;;;;;;7.75;2.20;;;;;;;;;;4959400;29;20089;-83
2022/04/19 05:51:57;;;;;;;;;;;;;;;;;;;;;
2022/04/19 05:54:27;;;;;;;5.32;2.08;;;;;;;;;;4961584;29;20031;-83
2022/04/19 05:57:02;;;;;;;5.95;2.05;;;;;;;;;;4960767;29;20066;-82
2022/04/19 05:59:31;;;;;;;4.50;2.45;;;;;;;;;;4960356;29;20063;-84
2022/04/19 06:05:08;;;;;;;4.57;2.22;;;;;;;;;;4961869;29;20051;-84
2022/04/19 06:08:02;;;;;;;;;;;;;;;;;;;;;
2022/04/19 06:10:45;;;;;;;4.47;2.05;;;;;;;;;;4961129;29;20052;-83
2022/04/19 06:13:19;;;;;;;6.47;2.30;;;;;;;;;;4959035;29;20051;-84
2022/04/19 06:15:51;;;;;;;4.30;2.22;;;;;;;;;;4956995;29;20016;-82
2022/04/19 06:18:26;;;;;;;11.13;2.60;;;;;;;;;;4957495;29;20055;-83
2022/04/19 06:20:55;;;;;;;5.10;2.40;;;;;;;;;;4956851;29;20019;-83
2022/04/19 06:23:38;;;;;;;8.18;2.35;;;;;;;;;;4960961;29;20005;-84
2022/04/19 06:26:18;;;;;;;5.35;2.50;;;;;;;;;;4961944;29;20105;-83
2022/04/19 06:28:49;;;;;;;5.68;2.40;;;;;;;;;;4962776;28;20016;-83
2022/04/19 06:31:22;;;;;;;4.38;2.22;;;;;;;;;;4961276;28;20020;-84
2022/04/19 06:33:56;;;;;;;4.32;1.90;;;;;;;;;;4960980;29;20030;-82
2022/04/19 06:36:31;;;;;;;6.28;2.72;;;;;;;;;;4959797;28;20034;-83
2022/04/19 06:39:02;;;;;;;5.75;2.47;;;;;;;;;;4959188;29;20028;-84
2022/04/19 06:41:43;;;;;;;6.38;2.67;;;;;;;;;;4959246;29;20039;-84
2022/04/19 06:44:12;;;;;;;4.85;2.30;;;;;;;;;;4960135;28;20019;-84
2022/04/19 06:46:44;;;;;;;6.70;2.97;;;;;;;;;;4959646;29;20023;-83
2022/04/19 06:49:12;;;;;;;6.07;2.42;;;;;;;;;;4960140;29;20011;-83
2022/04/19 06:51:51;;;;;;;;;;;;;;;;;;;;;
2022/04/19 06:56:54;;;;;;;8.43;2.50;;;;;;;;;;5907353;23;20035;-82
2022/04/19 07:02:18;;;;;;;4.68;2.40;;;;;;;;;;4960585;29;20507;-81
2022/04/19 07:04:45;;;;;;;9.27;3.28;;;;;;;;;;4942784;29;20095;-82
2022/04/19 07:07:39;;;;;;;;;;;;;;;;;;;;;
2022/04/19 07:10:09;;;;;;;7.10;2.38;;;;;;;;;;4960217;29;20046;-83
2022/04/19 07:15:30;;;;;;;4.28;2.20;;;;;;;;;;4960047;28;20080;-82
2022/04/19 07:18:02;;;;;;;5.57;2.58;;;;;;;;;;4961045;29;20018;-81
2022/04/19 07:26:38;;;;;;;6.88;2.55;;;;;;;;;;4935784;29;20018;-83
2022/04/19 07:29:18;;;;;;;;;;;;;;;;;;;;;
2022/04/19 07:31:46;;;;;;;6.00;2.65;;;;;;;;;;4939268;29;20044;-84
2022/04/19 07:34:16;;;;;;;5.40;2.50;;;;;;;;;;4923812;29;20028;-84
2022/04/19 07:36:56;;;;;;;4.90;2.30;;;;;;;;;;4940826;29;20012;-83
2022/04/19 07:39:27;;;;;;;;;;;;;;;;;;4923609;29;20020;-84
2022/04/19 07:42:08;;;;;;;4.10;2.38;;;;;;;;;;4924591;29;19911;-84
2022/04/19 07:44:49;;;;;;;4.53;2.95;;;;;;;;;;4910396;29;20044;-83
2022/04/19 07:47:17;;;;;;;6.70;2.72;;;;;;;;;;4922171;29;20024;-83
2022/04/19 07:49:49;;;;;;;9.57;3.80;;;;;;;;;;4922347;29;20020;-82
2022/04/19 07:52:18;;;;;;;5.93;2.60;;;;;;;;;;4934215;29;20024;-82
2022/04/19 07:54:44;;;;;;;;;;;;;;;;;;4921346;29;20011;-83
2022/04/19 07:57:19;;;;;;;5.32;2.40;;;;;;;;;;4919054;29;19911;-84
2022/04/19 07:59:47;;;;;;;6.82;2.60;;;;;;;;;;4918567;29;20055;-83
2022/04/19 08:02:17;;;;;;;8.85;3.20;;;;;;;;;;4921015;29;20020;-83
2022/04/19 08:04:54;;;;;;;5.40;2.88;;;;;;;;;;4919807;29;20571;-85
2022/04/19 08:07:35;;;;;;;5.75;2.95;;;;;;;;;;4922539;29;20036;-86
2022/04/19 08:10:05;;;;;;;9.07;4.50;;;;;;;;;;4923777;28;20012;-85
2022/04/19 08:12:49;;;;;;;7.03;3.08;;;;;;;;;;4924635;28;20032;-85
2022/04/19 08:18:54;;;;;;;9.93;3.40;;;;;;;;;;4940695;28;20028;-85
2022/04/19 08:21:24;;;;;;;9.13;3.13;;;;;;;;;;4924484;29;20102;-86
2022/04/19 08:26:35;;;;;;;10.52;3.15;;;;;;;;;;5335325;23;20056;-85
2022/04/19 08:31:53;;;;;;;;;;;;;;;;;;;;;
2022/04/19 08:34:18;;;;;;;6.05;2.90;;;;;;;;;;4940628;23;20131;-80
2022/04/19 08:36:43;;;;;;;6.10;2.97;;;;;;;;;;4919997;29;20055;-80
2022/04/19 08:39:11;;;;;;;8.52;3.60;;;;;;;;;;4936734;29;20015;-81
2022/04/19 08:41:37;;;;;;;6.07;2.73;;;;;;;;;;4936705;29;20096;-80
2022/04/19 08:44:04;;;;;;;5.55;2.90;;;;;;;;;;4937377;29;20040;-81
2022/04/19 08:46:31;;;;;;;8.95;2.90;;;;;;;;;;4936359;29;20012;-81
2022/04/19 08:48:59;;;;;;;14.63;4.13;;;;;;;;;;4936245;29;20019;-80
2022/04/19 08:51:26;;;;;;;13.15;4.15;;;;;;;;;;4936876;29;20023;-79
2022/04/19 08:59:29;;;;;;;6.82;2.92;;;;;;;;;;4941050;29;20030;-82
2022/04/19 09:01:54;;;;;;;8.48;3.45;;;;;;;;;;4941581;29;20027;-80
2022/04/19 09:04:23;;;;;;;5.25;2.80;;;;;;;;;;4923460;29;20023;-82
2022/04/19 09:06:54;;;;;;;7.88;3.83;;;;;;;;;;4939800;29;20031;-79
2022/04/19 09:09:30;;;;;;;12.23;4.45;;;;;;;;;;4939287;29;20400;-78
2022/04/19 09:12:05;;;;;;;8.27;4.10;;;;;;;;;;4922942;29;20031;-79
2022/04/19 09:14:31;;;;;;;10.10;4.68;;;;;;;;;;4941307;29;20023;-79
2022/04/19 09:17:06;;;;;;;10.77;3.72;;;;;;;;;;4923386;29;20386;-78
2022/04/19 09:19:31;;;;;;;7.18;3.35;;;;;;;;;;4941201;29;20020;-79
2022/04/19 09:21:57;;;;;;;9.77;3.90;;;;;;;;;;4942903;29;20012;-78
2022/04/19 09:24:23;;;;;;;8.23;3.60;;;;;;;;;;4942226;29;20352;-81
2022/04/19 09:26:48;;;;;;;10.18;3.63;;;;;;;;;;4940075;29;20020;-80
2022/04/19 09:29:21;;;;;;;9.45;3.92;;;;;;;;;;4939595;29;20023;-83
2022/04/19 09:31:51;;;;;;;12.55;4.90;;;;;;;;;;4939675;29;20019;-81
2022/04/19 09:34:30;;;;;;;9.07;3.85;;;;;;;;;;4939900;29;20023;-80
2022/04/19 09:37:08;;;;;;;6.72;3.45;;;;;;;;;;4921601;29;20102;-79
2022/04/19 09:39:37;;;;;;;9.30;3.72;;;;;;;;;;4921682;29;20063;-78
2022/04/19 09:42:07;;;;;;;12.25;3.80;;;;;;;;;;4938551;29;20012;-79
2022/04/19 09:44:51;;;;;;;7.00;3.47;;;;;;;;;;4938198;29;20015;-80
2022/04/19 09:47:16;;;;;;;7.38;3.42;;;;;;;;;;4937935;29;20051;-80
2022/04/19 09:49:49;;;;;;;8.57;3.35;;;;;;;;;;4921298;29;20426;-79
2022/04/19 09:52:15;;;;;;;7.40;3.67;;;;;;;;;;4938975;29;20024;-79
2022/04/19 09:54:41;;;;;;;6.72;3.30;;;;;;;;;;4938130;29;20079;-79
2022/04/19 09:57:12;;;;;;;6.05;3.55;;;;;;;;;;4921765;29;20028;-77
2022/04/19 09:59:44;;;;;;;7.90;3.75;;;;;;;;;;4921166;29;20019;-78
2022/04/19 10:10:24;;;;;;;8.68;3.95;;;;;;;;;;4947525;29;20034;-80
2022/04/19 10:12:51;;;;;;;9.18;3.70;;;;;;;;;;4946322;29;20149;-80
2022/04/19 10:15:16;;;;;;;11.48;3.67;;;;;;;;;;4922622;29;20145;-81
2022/04/19 10:17:41;;;;;;;8.07;3.17;;;;;;;;;;4921767;29;20058;-81
2022/04/19 10:20:07;;;;;;;8.68;3.40;;;;;;;;;;4921340;29;20023;-80
2022/04/19 10:22:33;;;;;;;7.05;3.08;;;;;;;;;;4940104;29;20016;-78
2022/04/19 10:24:58;;;;;;;5.88;2.80;;;;;;;;;;4923068;29;20221;-79
2022/04/19 10:27:34;;;;;;;8.55;4.30;;;;;;;;;;4940765;29;20027;-82
2022/04/19 10:30:00;;;;;;;6.43;2.53;;;;;;;;;;4941705;29;20047;-79
2022/04/19 10:32:33;;;;;;;5.43;2.83;;;;;;;;;;4924473;29;20051;-81
2022/04/19 10:34:59;;;;;;;5.57;2.90;;;;;;;;;;4922381;29;20042;-81
2022/04/19 10:37:24;;;;;;;5.55;2.90;;;;;;;;;;4921792;29;20142;-81
2022/04/19 10:39:50;;;;;;;9.43;3.00;;;;;;;;;;4938663;29;20052;-81
2022/04/19 10:42:28;;;;;;;6.80;3.00;;;;;;;;;;4938691;29;20091;-79
2022/04/19 10:44:55;;;;;;;7.93;3.28;;;;;;;;;;4920352;29;20031;-80
2022/04/19 10:47:23;;;;;;;9.10;3.20;;;;;;;;;;4937933;29;20023;-80
2022/04/19 10:50:00;;;;;;;7.13;2.78;;;;;;;;;;4937962;29;20024;-78
2022/04/19 10:52:38;;;;;;;8.85;3.58;;;;;;;;;;4938110;29;20023;-80
2022/04/19 10:55:09;;;;;;;5.43;2.70;;;;;;;;;;4937563;29;20077;-77
2022/04/19 11:00:27;;;;;;;6.63;3.28;;;;;;;;;;4939047;29;20027;-80
2022/04/19 11:03:00;;;;;;;10.48;3.05;;;;;;;;;;4921645;29;20046;-80
2022/04/19 11:05:44;;;;;;;6.53;3.00;;;;;;;;;;4939950;29;20023;-78
2022/04/19 11:08:19;;;;;;;7.20;2.80;;;;;;;;;;4940310;29;20090;-78
2022/04/19 11:10:44;;;;;;;7.72;2.85;;;;;;;;;;4940022;29;20031;-77
2022/04/19 11:13:09;;;;;;;10.70;3.33;;;;;;;;;;4940248;29;20031;-79
2022/04/19 11:15:38;;;;;;;5.90;2.88;;;;;;;;;;4924234;29;20106;-78
2022/04/19 11:18:22;;;;;;;8.20;3.00;;;;;;;;;;4923801;29;20020;-78
2022/04/19 11:20:49;;;;;;;7.43;2.85;;;;;;;;;;4920502;29;20503;-79
2022/04/19 11:23:27;;;;;;;8.27;2.70;;;;;;;;;;4921569;29;20027;-79
2022/04/19 11:25:53;;;;;;;6.13;2.63;;;;;;;;;;4944539;29;20043;-80
2022/04/19 11:28:23;;;;;;;6.43;3.30;;;;;;;;;;4941838;29;20476;-80
2022/04/19 11:30:57;;;;;;;6.50;2.47;;;;;;;;;;4939395;29;20019;-77
2022/04/19 11:33:32;;;;;;;4.03;1.98;;;;;;;;;;4937640;29;20031;-79
2022/04/19 11:36:00;;;;;;;5.03;2.47;;;;;;;;;;4939014;29;20076;-81
2022/04/19 11:38:25;;;;;;;6.30;2.58;;;;;;;;;;4937960;29;20078;-80
2022/04/19 11:49:03;;;;;;;5.57;2.67;;;;;;;;;;4936134;29;20074;-79
2022/04/19 11:51:30;;;;;;;3.40;1.80;;;;;;;;;;4936044;29;20020;-79
2022/04/19 11:53:55;;;;;;;5.15;2.83;;;;;;;;;;4918347;29;20487;-79
2022/04/19 11:56:21;;;;;;;8.15;2.95;;;;;;;;;;4936073;29;20034;-80
2022/04/19 11:58:52;;;;;;;6.72;3.80;;;;;;;;;;4935794;29;20078;-80
2022/04/19 12:01:17;;;;;;;5.30;2.40;;;;;;;;;;4935525;29;20042;-79
2022/04/19 12:03:42;;;;;;;7.15;2.58;;;;;;;;;;4918400;29;20514;-80
2022/04/19 12:06:08;;;;;;;5.38;2.33;;;;;;;;;;4935441;29;20020;-80
2022/04/19 12:08:37;;;;;;;7.28;2.70;;;;;;;;;;4935504;29;20028;-80
2022/04/19 12:11:04;;;;;;;6.15;2.45;;;;;;;;;;4935239;29;20019;-79
2022/04/19 12:13:29;;;;;;;5.28;2.17;;;;;;;;;;4934875;29;20020;-80
2022/04/19 12:15:54;;;;;;;5.72;2.95;;;;;;;;;;4935078;29;20447;-78
2022/04/19 12:18:49;;;;;;;5.43;2.88;;;;;;;;;;4934638;29;20146;-79
2022/04/19 12:21:14;;;;;;;4.85;2.30;;;;;;;;;;4922308;29;20526;-79
2022/04/19 12:23:40;;;;;;;4.70;2.10;;;;;;;;;;4934442;29;20031;-79
2022/04/19 12:26:06;;;;;;;8.43;2.35;;;;;;;;;;4934631;29;20031;-80
2022/04/19 12:28:35;;;;;;;6.50;2.35;;;;;;;;;;4917629;29;20034;-80
2022/04/19 12:31:01;;;;;;;7.15;2.35;;;;;;;;;;4918007;29;20055;-80
2022/04/19 12:33:26;;;;;;;11.05;3.15;;;;;;;;;;4917306;29;20027;-79
2022/04/19 12:35:54;;;;;;;4.83;2.10;;;;;;;;;;4917488;29;20023;-79
2022/04/19 12:38:27;;;;;;;3.45;1.67;;;;;;;;;;4934816;29;20325;-79
2022/04/19 12:40:53;;;;;;;6.35;2.20;;;;;;;;;;4934386;29;20031;-80
2022/04/19 12:43:18;;;;;;;3.80;1.75;;;;;;;;;;4934273;29;20053;-81
2022/04/19 12:45:45;;;;;;;5.05;2.58;;;;;;;;;;4934705;29;20063;-80
2022/04/19 12:48:17;;;;;;;5.03;2.25;;;;;;;;;;4934738;29;20027;-79
2022/04/19 12:50:46;;;;;;;5.68;1.70;;;;;;;;;;4917557;29;20019;-79
2022/04/19 12:53:24;;;;;;;3.72;1.73;;;;;;;;;;4934808;29;20024;-81
2022/04/19 12:58:52;;;;;;;5.00;1.85;;;;;;;;;;4935009;29;20030;-79
2022/04/19 13:01:17;;;;;;;3.95;1.60;;;;;;;;;;4935147;29;20028;-80
2022/04/19 13:03:43;;;;;;;3.40;1.75;;;;;;;;;;4935542;29;20111;-79
2022/04/19 13:14:20;;;;;;;4.38;1.70;;;;;;;;;;4941141;29;20083;-79
2022/04/19 13:16:45;;;;;;;2.80;1.40;;;;;;;;;;4941509;29;20031;-80
2022/04/19 13:19:12;;;;;;;3.38;1.50;;;;;;;;;;4941823;29;20024;-80
2022/04/19 13:21:39;;;;;;;4.53;1.80;;;;;;;;;;4941541;29;20023;-81
2022/04/19 13:24:05;;;;;;;4.82;1.40;;;;;;;;;;4942569;29;20517;-79
2022/04/19 13:26:31;;;;;;;3.25;1.50;;;;;;;;;;4927721;29;20103;-79
2022/04/19 13:28:56;;;;;;;4.38;1.30;;;;;;;;;;4947365;29;20016;-79
2022/04/19 13:31:23;;;;;;;2.23;1.23;;;;;;;;;;4943697;29;20031;-81
2022/04/19 13:33:48;;;;;;;3.97;1.60;;;;;;;;;;4933913;29;20027;-80
2022/04/19 13:36:13;;;;;;;6.22;1.77;;;;;;;;;;4918109;29;20119;-79
2022/04/19 13:38:38;;;;;;;3.38;1.20;;;;;;;;;;4917591;29;20038;-80
2022/04/19 13:41:04;;;;;;;3.50;1.27;;;;;;;;;;4934344;29;20454;-81
2022/04/19 13:43:29;;;;;;;3.80;1.17;;;;;;;;;;4939703;29;20445;-79
2022/04/19 13:45:54;;;;;;;4.40;1.58;;;;;;;;;;4938586;29;20398;-80
2022/04/19 13:48:19;;;;;;;5.30;1.60;;;;;;;;;;4938916;29;20020;-78
2022/04/19 13:50:45;;;;;;;6.10;1.40;;;;;;;;;;4920856;29;20626;-80
2022/04/19 13:53:10;;;;;;;4.80;1.40;;;;;;;;;;4937510;29;20028;-79
2022/04/19 13:55:35;;;;;;;6.28;1.40;;;;;;;;;;4937120;29;20054;-79
2022/04/19 13:58:01;;;;;;;3.90;1.40;;;;;;;;;;4937219;29;20107;-80
2022/04/19 14:00:27;;;;;;;7.03;1.17;;;;;;;;;;4936867;29;20027;-79
2022/04/19 14:02:53;;;;;;;5.57;1.60;;;;;;;;;;4919987;29;20255;-78
2022/04/19 14:05:18;;;;;;;5.78;2.15;;;;;;;;;;4936794;29;20404;-79
2022/04/19 14:07:43;;;;;;;3.78;1.17;;;;;;;;;;4919836;29;20028;-79
2022/04/19 14:10:10;;;;;;;5.10;2.90;;;;;;;;;;4920023;29;20031;-79
2022/04/19 14:12:35;;;;;;;3.97;1.33;;;;;;;;;;4919860;29;20028;-80
2022/04/19 14:15:00;;;;;;;3.95;1.60;;;;;;;;;;4936867;29;20052;-79
2022/04/19 14:17:26;;;;;;;7.43;2.00;;;;;;;;;;4937351;29;20431;-79
2022/04/19 14:19:51;;;;;;;4.10;1.30;;;;;;;;;;4936940;29;20451;-79
2022/04/19 14:22:20;;;;;;;6.97;1.58;;;;;;;;;;4937071;29;20396;-79
2022/04/19 14:24:45;;;;;;;8.38;1.33;;;;;;;;;;4937169;29;20048;-79
2022/04/19 14:27:10;;;;;;;3.95;1.20;;;;;;;;;;4937063;29;20066;-79
2022/04/19 14:35:04;;;;;;;6.40;1.80;;;;;;;;;;5033550;23;20063;-88
2022/04/19 14:37:40;;;;;;;3.30;1.30;;;;;;;;;;4940606;29;20079;-87
2022/04/19 14:40:08;;;;;;;2.95;1.42;;;;;;;;;;4940481;29;20027;-88
2022/04/19 14:42:40;;;;;;;4.45;1.50;;;;;;;;;;4955367;29;20022;-87
2022/04/19 14:45:16;;;;;;;3.20;1.40;;;;;;;;;;4938522;29;20026;-86
2022/04/19 14:52:13;;;;;;;9.43;2.08;;;;;;;;;;4942683;29;20040;-87
2022/04/19 14:53:25;;;;;;;5.60;1.60;;;;;;;;;;4957464;29;20039;-86
2022/04/19 14:55:53;;;;;;;4.50;1.60;;;;;;;;;;4941752;29;20031;-87
2022/04/19 14:58:20;;;;;;;2.58;1.20;;;;;;;;;;4942831;29;20059;-88
2022/04/19 15:00:48;;;;;;;4.93;1.40;;;;;;;;;;4937989;29;20023;-88
2022/04/19 15:03:16;;;;;;;6.70;1.70;;;;;;;;;;4938359;29;20027;-89
2022/04/19 15:05:41;;;;;;;5.75;1.73;;;;;;;;;;4936012;29;20411;-89
2022/04/19 15:08:09;;;;;;;2.65;1.25;;;;;;;;;;4937902;29;20091;-89
2022/04/19 15:10:37;;;;;;;9.00;1.73;;;;;;;;;;4938176;29;20039;-90
2022/04/19 15:13:03;;;;;;;3.00;1.30;;;;;;;;;;4939123;29;20091;-89
2022/04/19 15:15:29;;;;;;;5.43;2.92;;;;;;;;;;4940061;29;20075;-88
2022/04/19 15:17:55;;;;;;;5.70;1.70;;;;;;;;;;4940072;29;20019;-89
2022/04/19 15:20:29;;;;;;;3.08;1.40;;;;;;;;;;4939250;29;20015;-88
2022/04/19 15:22:58;;;;;;;5.10;1.48;;;;;;;;;;4939786;29;20095;-88
2022/04/19 15:25:26;;;;;;;3.15;1.35;;;;;;;;;;4940326;29;20151;-89
2022/04/19 15:27:52;;;;;;;5.03;1.40;;;;;;;;;;4938568;29;20075;-88
2022/04/19 15:30:23;;;;;;;4.82;1.38;;;;;;;;;;4937967;29;20028;-88
2022/04/19 15:32:52;;;;;;;4.53;1.75;;;;;;;;;;4936503;29;20027;-88
2022/04/19 15:35:21;;;;;;;3.45;1.50;;;;;;;;;;4936846;29;20036;-90
2022/04/19 15:37:50;;;;;;;3.88;1.60;;;;;;;;;;4936389;29;20119;-90
2022/04/19 15:40:19;;;;;;;2.80;1.20;;;;;;;;;;4934944;29;20096;-90
2022/04/19 15:42:45;;;;;;;4.95;1.58;;;;;;;;;;4936759;29;20024;-90
2022/04/19 15:45:11;;;;;;;3.65;1.30;;;;;;;;;;4936625;29;20031;-89
2022/04/19 15:47:39;;;;;;;6.65;1.60;;;;;;;;;;4937559;29;20016;-90
2022/04/19 15:50:05;;;;;;;4.60;1.40;;;;;;;;;;4937634;29;20023;-89
2022/04/19 15:52:31;;;;;;;5.93;1.30;;;;;;;;;;4937339;29;20031;-89
2022/04/19 15:54:57;;;;;;;2.90;1.20;;;;;;;;;;4937472;29;20023;-89
2022/04/19 15:57:27;;;;;;;3.25;1.25;;;;;;;;;;4937888;29;20042;-89
2022/04/19 15:59:53;;;;;;;11.13;2.17;;;;;;;;;;4935209;29;20024;-88
2022/04/19 16:02:18;;;;;;;9.35;2.00;;;;;;;;;;4935684;29;20111;-89
2022/04/19 16:04:47;;;;;;;6.35;1.60;;;;;;;;;;4952811;29;20039;-88
2022/04/19 16:07:16;;;;;;;6.85;1.90;;;;;;;;;;4935532;29;20024;-89
2022/04/19 16:09:42;;;;;;;4.70;2.22;;;;;;;;;;4934393;29;20024;-89
2022/04/19 16:12:09;;;;;;;4.50;2.00;;;;;;;;;;4934513;29;20039;-90
2022/04/19 16:14:35;;;;;;;3.55;1.83;;;;;;;;;;4933670;29;20028;-89
2022/04/19 16:25:13;;;;;;;2.92;1.67;;;;;;;;;;4951540;29;20067;-91
2022/04/19 16:27:39;;;;;;;3.20;1.33;;;;;;;;;;4932527;29;20034;-89
2022/04/19 16:30:04;;;;;;;5.63;1.40;;;;;;;;;;4920927;29;20028;-91
2022/04/19 16:32:34;;;;;;;8.23;2.20;;;;;;;;;;4939918;29;20019;-92
2022/04/19 16:34:59;;;;;;;3.22;1.55;;;;;;;;;;4926233;29;20039;-92
2022/04/19 16:37:24;;;;;;;5.60;1.67;;;;;;;;;;4923770;29;20024;-90
2022/04/19 16:39:49;;;;;;;3.95;1.50;;;;;;;;;;4940465;29;20102;-89
2022/04/19 16:42:15;;;;;;;4.53;1.70;;;;;;;;;;4923412;29;20019;-90
2022/04/19 16:44:43;;;;;;;4.93;1.90;;;;;;;;;;4931412;29;20019;-89
2022/04/19 16:47:08;;;;;;;2.72;1.30;;;;;;;;;;4931605;29;20039;-90
2022/04/19 16:49:36;;;;;;;6.38;1.98;;;;;;;;;;4947052;29;20080;-90
2022/04/19 16:52:02;;;;;;;7.72;3.40;;;;;;;;;;4934245;29;20031;-89